Terminal Aerodrome Forecast
Issued by NWS

Home | Current Version | Previous Version | Text Only | Print | Product List | Glossary On
Versions: 1 2 3 4 5 6 7 8 9 10 11 12 13 14 15 16 17 18
000
FTUS43 KDLH 290500
TAFHYR
TAF
KHYR 290531Z 2906/3006 19011G18KT P6SM BKN250 WS020/20040KT
     FM291000 19011G18KT 6SM -RA BKN020 OVC050 WS020/20040KT
      TEMPO 2910/2913 4SM -FZRA OVC020
     FM291300 22015G25KT 2SM -RASN OVC020
     FM291800 29017G30KT 6SM -RA OVC025=

USA.gov is the U.S. government's official web portal to all federal, state and local government web resources and services.